Time;durP1;ratioP1;P1;durP2;ratioP2;P2;SDS_P1;SDS_P2;PMS_P1;PMS_P2;Temp;Humidity;BMP_temperature;BMP_pressure;BME280_temperature;BME280_humidity;BME280_pressure;Samples;Min_cycle;Max_cycle;Signal;HPM_P1;HPM_P2
2022/04/22 00:02:39;;;;;;;7.37;4.60;;;;;;;;;;12659548;28;20039;-82
2022/04/22 00:08:40;;;;;;;4.07;3.77;;;;;;;;;;12693996;28;20507;-82
2022/04/22 00:14:42;;;;;;;5.35;4.78;;;;;;;;;;12705136;28;20043;-82
2022/04/22 00:20:44;;;;;;;5.95;5.47;;;;;;;;;;12676312;28;20035;-82
2022/04/22 00:26:46;;;;;;;5.20;4.80;;;;;;;;;;12675540;28;20396;-82
2022/04/22 00:32:47;;;;;;;4.78;4.38;;;;;;;;;;12693169;28;20052;-83
2022/04/22 00:38:49;;;;;;;4.70;4.30;;;;;;;;;;12658947;28;20027;-82
2022/04/22 00:44:51;;;;;;;5.00;4.70;;;;;;;;;;12704959;28;20399;-82
2022/04/22 00:50:52;;;;;;;5.72;5.22;;;;;;;;;;12674407;28;20032;-82
2022/04/22 00:56:54;;;;;;;7.10;6.50;;;;;;;;;;12698121;28;20043;-82
2022/04/22 01:02:56;;;;;;;6.03;5.60;;;;;;;;;;12683759;28;20043;-82
2022/04/22 01:15:18;;;;;;;7.78;7.18;;;;;;;;;;12682577;28;20051;-82
2022/04/22 01:21:20;;;;;;;7.82;7.22;;;;;;;;;;12682554;28;20388;-82
2022/04/22 01:27:23;;;;;;;8.95;8.15;;;;;;;;;;12665220;28;20039;-82
2022/04/22 01:33:25;;;;;;;9.07;8.27;;;;;;;;;;12700056;28;20047;-82
2022/04/22 01:39:29;;;;;;;9.23;8.52;;;;;;;;;;12681207;28;20487;-82
2022/04/22 01:45:31;;;;;;;8.45;7.75;;;;;;;;;;12664840;28;20028;-82
2022/04/22 01:51:32;;;;;;;9.40;8.70;;;;;;;;;;12699143;28;20035;-82
2022/04/22 01:57:34;;;;;;;8.80;8.10;;;;;;;;;;12680916;28;20027;-82
2022/04/22 02:03:36;;;;;;;7.70;7.10;;;;;;;;;;12664337;28;20058;-82
2022/04/22 02:09:37;;;;;;;8.45;7.70;;;;;;;;;;12663182;28;20039;-82
2022/04/22 02:15:39;;;;;;;7.70;7.10;;;;;;;;;;12679871;28;20044;-82
2022/04/22 02:21:41;;;;;;;8.65;7.95;;;;;;;;;;12697762;28;20031;-83
2022/04/22 02:34:04;;;;;;;7.78;7.07;;;;;;;;;;12700973;28;20062;-82
2022/04/22 02:40:07;;;;;;;7.30;6.70;;;;;;;;;;12696904;28;20464;-82
2022/04/22 02:46:09;;;;;;;7.43;6.85;;;;;;;;;;12661763;28;20027;-82
2022/04/22 02:52:12;;;;;;;8.52;7.85;;;;;;;;;;12696518;28;20051;-82
2022/04/22 02:58:14;;;;;;;8.65;7.85;;;;;;;;;;12707083;28;20034;-82
2022/04/22 03:04:16;;;;;;;7.38;6.75;;;;;;;;;;12677771;28;20035;-82
2022/04/22 03:10:18;;;;;;;7.32;6.72;;;;;;;;;;12677326;28;20474;-82
2022/04/22 03:16:20;;;;;;;8.30;7.60;;;;;;;;;;12676608;28;20039;-81
2022/04/22 03:22:22;;;;;;;7.72;7.03;;;;;;;;;;12676967;28;20031;-82
2022/04/22 03:28:24;;;;;;;6.47;5.97;;;;;;;;;;12694873;28;20023;-82
2022/04/22 03:34:26;;;;;;;6.55;6.05;;;;;;;;;;12692109;28;20030;-82
2022/04/22 03:40:28;;;;;;;6.20;5.70;;;;;;;;;;12702874;28;20031;-82
2022/04/22 03:46:30;;;;;;;5.43;5.03;;;;;;;;;;12676597;28;20036;-82
2022/04/22 03:52:31;;;;;;;5.47;5.07;;;;;;;;;;12694395;28;20048;-82
2022/04/22 03:58:33;;;;;;;6.10;5.60;;;;;;;;;;12694395;28;20032;-82
2022/04/22 04:04:35;;;;;;;6.00;5.40;;;;;;;;;;12694141;28;20281;-82
2022/04/22 04:16:57;;;;;;;6.35;5.85;;;;;;;;;;12675486;28;20051;-82
2022/04/22 04:23:14;;;;;;;6.30;5.85;;;;;;;;;;12675845;28;20031;-83
2022/04/22 04:29:16;;;;;;;7.15;6.55;;;;;;;;;;12660692;28;20059;-82
2022/04/22 04:35:17;;;;;;;5.65;5.25;;;;;;;;;;12704021;28;20067;-83
2022/04/22 04:41:19;;;;;;;5.28;4.85;;;;;;;;;;12703044;28;20032;-83
2022/04/22 04:47:21;;;;;;;4.72;4.32;;;;;;;;;;12686972;28;20035;-83
2022/04/22 04:53:26;;;;;;;4.00;3.70;;;;;;;;;;12683941;28;20047;-82
2022/04/22 04:59:28;;;;;;;4.35;4.00;;;;;;;;;;12684215;28;20042;-82
2022/04/22 05:05:30;;;;;;;4.07;3.75;;;;;;;;;;12720546;28;20152;-82
2022/04/22 05:11:31;;;;;;;3.37;3.07;;;;;;;;;;12683138;28;20035;-83
2022/04/22 05:17:34;;;;;;;3.72;3.42;;;;;;;;;;12701020;28;20032;-82
2022/04/22 05:23:36;;;;;;;3.20;3.00;;;;;;;;;;12701395;28;20036;-82
2022/04/22 05:35:58;;;;;;;4.47;3.33;;;;;;;;;;12676865;28;20046;-82
2022/04/22 05:42:01;;;;;;;3.45;2.92;;;;;;;;;;12678798;28;20042;-81
2022/04/22 05:48:03;;;;;;;4.15;3.00;;;;;;;;;;12702093;28;20214;-81
2022/04/22 05:54:05;;;;;;;3.90;3.50;;;;;;;;;;12693403;28;20032;-81
2022/04/22 06:00:08;;;;;;;3.28;3.08;;;;;;;;;;12693222;28;20329;-81
2022/04/22 06:06:18;;;;;;;3.97;3.25;;;;;;;;;;12676384;28;20020;-81
2022/04/22 06:12:19;;;;;;;4.47;3.03;;;;;;;;;;12667886;28;20480;-81
2022/04/22 06:18:23;;;;;;;3.38;3.03;;;;;;;;;;12671611;28;20042;-83
2022/04/22 06:24:24;;;;;;;3.70;3.30;;;;;;;;;;12686517;28;20053;-85
2022/04/22 06:30:27;;;;;;;3.83;3.20;;;;;;;;;;12685720;28;20055;-81
2022/04/22 06:36:29;;;;;;;3.40;3.10;;;;;;;;;;12678266;28;20096;-82
2022/04/22 06:48:51;;;;;;;4.28;3.22;;;;;;;;;;12682580;28;20043;-82
2022/04/22 06:54:53;;;;;;;2.78;2.58;;;;;;;;;;12678171;28;20052;-82
2022/04/22 07:00:55;;;;;;;3.13;2.90;;;;;;;;;;12675188;28;20031;-82
2022/04/22 07:06:57;;;;;;;5.13;3.70;;;;;;;;;;12691216;27;21283;-80
2022/04/22 07:12:59;;;;;;;3.38;2.75;;;;;;;;;;12686902;28;20401;-81
2022/04/22 07:19:01;;;;;;;3.07;2.87;;;;;;;;;;12681812;28;20023;-82
2022/04/22 07:25:03;;;;;;;3.45;2.92;;;;;;;;;;12682493;28;20036;-83
2022/04/22 07:31:05;;;;;;;5.57;3.17;;;;;;;;;;12673430;28;20055;-81
2022/04/22 07:37:11;;;;;;;3.33;3.03;;;;;;;;;;12683073;27;20047;-81
2022/04/22 07:49:33;;;;;;;3.55;3.05;;;;;;;;;;12689844;28;20028;-80
2022/04/22 07:55:35;;;;;;;3.50;3.20;;;;;;;;;;12688723;28;20487;-81
2022/04/22 08:01:37;;;;;;;2.95;2.67;;;;;;;;;;12670438;28;20078;-82
2022/04/22 08:07:38;;;;;;;2.45;2.25;;;;;;;;;;12672160;28;20035;-81
2022/04/22 08:13:41;;;;;;;2.25;1.95;;;;;;;;;;12682287;28;20047;-82
2022/04/22 08:19:46;;;;;;;2.15;2.05;;;;;;;;;;12681369;28;20392;-78
2022/04/22 08:25:48;;;;;;;4.13;2.70;;;;;;;;;;12680028;28;20034;-81
2022/04/22 08:31:52;;;;;;;3.13;2.65;;;;;;;;;;12684382;28;20048;-82
2022/04/22 08:37:53;;;;;;;2.40;2.17;;;;;;;;;;12677294;28;20035;-82
2022/04/22 08:43:56;;;;;;;2.45;1.77;;;;;;;;;;12685976;28;20035;-86
2022/04/22 08:50:06;;;;;;;2.03;1.93;;;;;;;;;;12696317;28;20038;-83
2022/04/22 08:56:10;;;;;;;1.80;1.70;;;;;;;;;;12690295;28;20031;-82
2022/04/22 09:02:13;;;;;;;1.65;1.55;;;;;;;;;;12680755;28;20288;-83
2022/04/22 09:08:15;;;;;;;1.92;1.73;;;;;;;;;;12666618;28;20035;-82
2022/04/22 09:14:20;;;;;;;1.80;1.70;;;;;;;;;;12692433;28;20598;-84
2022/04/22 09:20:22;;;;;;;1.77;1.55;;;;;;;;;;12690005;28;20028;-84
2022/04/22 09:26:25;;;;;;;1.20;1.20;;;;;;;;;;12672298;28;20055;-83
2022/04/22 09:32:27;;;;;;;1.23;1.13;;;;;;;;;;12636929;28;20070;-83
2022/04/22 09:44:49;;;;;;;1.30;1.15;;;;;;;;;;12631767;28;20044;-82
2022/04/22 09:50:54;;;;;;;1.00;0.90;;;;;;;;;;12633067;28;20028;-82
2022/04/22 09:56:57;;;;;;;1.10;1.08;;;;;;;;;;12634088;28;20032;-83
2022/04/22 10:02:58;;;;;;;1.20;1.10;;;;;;;;;;12632339;28;20036;-82
2022/04/22 10:09:00;;;;;;;1.33;1.23;;;;;;;;;;12636778;28;20298;-85
2022/04/22 10:15:04;;;;;;;1.20;1.10;;;;;;;;;;12643260;28;20049;-83
2022/04/22 10:21:06;;;;;;;1.20;1.10;;;;;;;;;;12614554;28;20027;-82
2022/04/22 10:27:10;;;;;;;0.90;0.90;;;;;;;;;;12631412;28;20027;-84
2022/04/22 10:33:12;;;;;;;0.50;0.50;;;;;;;;;;12608041;28;20041;-81
2022/04/22 10:39:32;;;;;;;0.85;0.85;;;;;;;;;;12603792;28;20036;-80
2022/04/22 10:52:19;;;;;;;1.03;0.60;;;;;;;;;;12604147;28;20028;-82
2022/04/22 10:58:23;;;;;;;1.20;1.10;;;;;;;;;;12611164;28;20314;-80
2022/04/22 11:04:28;;;;;;;1.05;0.90;;;;;;;;;;12612885;28;20489;-80
2022/04/22 11:10:49;;;;;;;1.67;1.40;;;;;;;;;;12605659;28;20509;-81
2022/04/22 11:16:52;;;;;;;2.35;2.00;;;;;;;;;;12584909;28;20036;-82
2022/04/22 11:22:56;;;;;;;1.77;1.60;;;;;;;;;;12590122;28;20045;-79
2022/04/22 11:28:58;;;;;;;1.40;1.30;;;;;;;;;;12614399;28;20041;-78
2022/04/22 11:35:00;;;;;;;;;;;;;;;;;;12644604;28;20047;-79
2022/04/22 11:41:02;;;;;;;1.05;1.00;;;;;;;;;;12642817;28;19923;-80
2022/04/22 11:47:04;;;;;;;1.65;1.55;;;;;;;;;;12643541;28;20028;-79
2022/04/22 11:53:19;;;;;;;1.20;1.10;;;;;;;;;;12644320;28;20040;-79
2022/04/22 11:59:22;;;;;;;1.27;1.20;;;;;;;;;;12642443;28;20044;-79
2022/04/22 12:05:33;;;;;;;3.20;2.70;;;;;;;;;;12644989;28;20039;-81
2022/04/22 12:11:39;;;;;;;2.00;1.90;;;;;;;;;;12642031;28;20036;-79
2022/04/22 12:17:41;;;;;;;1.50;1.40;;;;;;;;;;12655824;28;20040;-79
2022/04/22 12:23:43;;;;;;;1.60;1.50;;;;;;;;;;12643381;28;20032;-80
2022/04/22 12:29:59;;;;;;;2.28;2.10;;;;;;;;;;12641841;28;20056;-79
2022/04/22 12:36:02;;;;;;;3.78;3.38;;;;;;;;;;12642094;28;20097;-80
2022/04/22 12:42:04;;;;;;;1.80;1.70;;;;;;;;;;12642570;28;20024;-79
2022/04/22 12:54:32;;;;;;;1.20;1.10;;;;;;;;;;12651340;28;19916;-81
2022/04/22 13:00:34;;;;;;;1.00;0.93;;;;;;;;;;12670037;28;20392;-76
2022/04/22 13:06:36;;;;;;;1.15;0.90;;;;;;;;;;12650848;28;20031;-76
2022/04/22 13:12:43;;;;;;;1.02;0.88;;;;;;;;;;12650567;28;20388;-75
2022/04/22 13:18:45;;;;;;;0.90;0.90;;;;;;;;;;12649099;28;20055;-75
2022/04/22 13:24:47;;;;;;;1.23;1.13;;;;;;;;;;12648999;28;20028;-76
2022/04/22 13:30:48;;;;;;;1.67;1.25;;;;;;;;;;12631482;28;20064;-76
2022/04/22 13:36:50;;;;;;;0.90;0.90;;;;;;;;;;12631267;28;20048;-76
2022/04/22 13:42:52;;;;;;;0.90;0.90;;;;;;;;;;12649387;28;20032;-76
2022/04/22 13:55:14;;;;;;;1.17;1.08;;;;;;;;;;12648443;28;20408;-76
2022/04/22 14:01:16;;;;;;;1.20;1.10;;;;;;;;;;12648807;28;20032;-76
2022/04/22 14:07:18;;;;;;;1.00;0.90;;;;;;;;;;12664558;28;20032;-76
2022/04/22 14:13:20;;;;;;;0.88;0.88;;;;;;;;;;12647775;28;20047;-76
2022/04/22 14:19:22;;;;;;;1.33;1.23;;;;;;;;;;12647169;28;20027;-76
2022/04/22 14:25:24;;;;;;;2.47;2.27;;;;;;;;;;12645810;28;20488;-76
2022/04/22 14:31:25;;;;;;;3.90;3.47;;;;;;;;;;12646901;28;20638;-76
2022/04/22 14:37:28;;;;;;;2.40;2.20;;;;;;;;;;12643017;28;20473;-76
2022/04/22 14:43:30;;;;;;;2.30;1.90;;;;;;;;;;12628288;28;20028;-75
2022/04/22 14:49:32;;;;;;;2.63;2.05;;;;;;;;;;12646092;28;20036;-75
2022/04/22 14:55:35;;;;;;;1.57;1.47;;;;;;;;;;12645817;28;20040;-75
2022/04/22 15:01:37;;;;;;;1.60;1.50;;;;;;;;;;12644307;28;20032;-75
2022/04/22 15:07:39;;;;;;;1.10;1.08;;;;;;;;;;12645532;28;20043;-75
2022/04/22 15:13:40;;;;;;;1.55;1.30;;;;;;;;;;12644152;28;20043;-76
2022/04/22 15:26:03;;;;;;;1.92;1.60;;;;;;;;;;12644075;28;20031;-75
2022/04/22 15:32:05;;;;;;;1.47;1.37;;;;;;;;;;12644696;28;20048;-76
2022/04/22 15:38:07;;;;;;;1.95;1.85;;;;;;;;;;12626130;28;20056;-75
2022/04/22 15:44:09;;;;;;;1.48;1.38;;;;;;;;;;12644008;28;20040;-75
2022/04/22 15:50:11;;;;;;;1.20;1.20;;;;;;;;;;12642707;28;20036;-75
2022/04/22 15:56:13;;;;;;;1.65;1.55;;;;;;;;;;12642344;28;20086;-75
2022/04/22 16:02:15;;;;;;;1.50;1.40;;;;;;;;;;12642547;28;20036;-75
2022/04/22 16:08:17;;;;;;;1.70;1.60;;;;;;;;;;12656966;28;20044;-76
2022/04/22 16:20:40;;;;;;;8.15;7.47;;;;;;;;;;12643116;28;20043;-76
2022/04/22 16:26:41;;;;;;;3.58;3.25;;;;;;;;;;12649267;28;20488;-76
2022/04/22 16:32:43;;;;;;;2.67;2.47;;;;;;;;;;12652608;28;20048;-76
2022/04/22 16:38:45;;;;;;;2.40;2.30;;;;;;;;;;12652533;28;20044;-76
2022/04/22 16:44:47;;;;;;;2.00;1.80;;;;;;;;;;12650445;28;20081;-76
2022/04/22 16:50:49;;;;;;;1.43;1.40;;;;;;;;;;12651779;28;20039;-76
2022/04/22 16:56:51;;;;;;;1.35;1.25;;;;;;;;;;12666029;28;20051;-76
2022/04/22 17:02:53;;;;;;;1.50;1.40;;;;;;;;;;12650522;28;20035;-76
2022/04/22 17:08:55;;;;;;;1.73;1.63;;;;;;;;;;12650133;28;20043;-75
2022/04/22 17:27:38;;;;;;;3.03;2.72;;;;;;;;;;12650152;28;20043;-80
2022/04/22 17:33:39;;;;;;;;;;;;;;;;;;12632526;28;20063;-78
2022/04/22 17:39:41;;;;;;;2.33;1.60;;;;;;;;;;12648955;28;20260;-77
2022/04/22 17:45:43;;;;;;;1.95;1.85;;;;;;;;;;12660905;28;20087;-79
2022/04/22 17:51:45;;;;;;;2.67;2.13;;;;;;;;;;12654039;28;20039;-79
2022/04/22 17:57:47;;;;;;;2.00;1.90;;;;;;;;;;12647416;28;20048;-79
2022/04/22 18:03:49;;;;;;;2.50;2.30;;;;;;;;;;12649519;28;20047;-79
2022/04/22 18:09:51;;;;;;;3.88;2.50;;;;;;;;;;12646670;28;20043;-79
2022/04/22 18:22:13;;;;;;;2.28;2.10;;;;;;;;;;12647484;28;20308;-78
2022/04/22 18:28:14;;;;;;;3.00;2.80;;;;;;;;;;12659949;28;20115;-79
2022/04/22 18:34:16;;;;;;;2.77;2.57;;;;;;;;;;12648785;28;20060;-79
2022/04/22 18:40:18;;;;;;;3.45;3.15;;;;;;;;;;12660938;28;20047;-79
2022/04/22 18:46:20;;;;;;;2.70;2.50;;;;;;;;;;12628292;28;20028;-79
2022/04/22 18:52:23;;;;;;;3.90;3.60;;;;;;;;;;12646795;28;20036;-79
2022/04/22 18:58:25;;;;;;;3.80;3.50;;;;;;;;;;12645733;28;20043;-79
2022/04/22 19:04:27;;;;;;;4.63;4.05;;;;;;;;;;12644561;28;20039;-76
2022/04/22 19:10:28;;;;;;;4.30;3.90;;;;;;;;;;12645309;28;20028;-76
2022/04/22 19:16:30;;;;;;;4.47;3.88;;;;;;;;;;12644071;28;20036;-80
2022/04/22 19:22:32;;;;;;;4.00;3.70;;;;;;;;;;12645249;28;20028;-76
2022/04/22 19:28:34;;;;;;;4.68;3.67;;;;;;;;;;12631153;28;20353;-79
2022/04/22 19:34:35;;;;;;;6.15;3.75;;;;;;;;;;12644687;28;20422;-79
2022/04/22 19:40:49;;;;;;;4.20;3.78;;;;;;;;;;12626491;28;20031;-79
2022/04/22 19:46:51;;;;;;;4.70;4.30;;;;;;;;;;12644531;28;20378;-79
2022/04/22 19:52:57;;;;;;;5.93;5.32;;;;;;;;;;12657929;28;20024;-79
2022/04/22 19:59:01;;;;;;;6.15;5.65;;;;;;;;;;12627929;28;20040;-79
2022/04/22 20:05:03;;;;;;;5.55;5.05;;;;;;;;;;12635802;28;20043;-76
2022/04/22 20:11:05;;;;;;;;;;;;;;;;;;12636206;28;20508;-77
2022/04/22 20:17:07;;;;;;;3.90;3.60;;;;;;;;;;12659288;28;20287;-76
2022/04/22 20:23:08;;;;;;;4.43;4.03;;;;;;;;;;12653142;28;20032;-75
2022/04/22 20:29:10;;;;;;;5.57;5.18;;;;;;;;;;12653696;28;20052;-77
2022/04/22 20:41:33;;;;;;;5.45;4.95;;;;;;;;;;12652855;28;20036;-75
2022/04/22 20:47:36;;;;;;;5.57;5.18;;;;;;;;;;12652367;28;20047;-76
2022/04/22 20:53:50;;;;;;;6.15;5.47;;;;;;;;;;12652244;28;20048;-75
2022/04/22 20:59:52;;;;;;;5.80;5.30;;;;;;;;;;12633888;28;20039;-75
2022/04/22 21:05:54;;;;;;;6.60;6.00;;;;;;;;;;12655849;28;20035;-76
2022/04/22 21:11:56;;;;;;;11.80;10.60;;;;;;;;;;12631947;28;20039;-76
2022/04/22 21:17:59;;;;;;;10.00;8.20;;;;;;;;;;12651404;28;20036;-76
2022/04/22 21:24:01;;;;;;;7.15;6.40;;;;;;;;;;12633138;28;20086;-77
2022/04/22 21:30:03;;;;;;;7.78;6.90;;;;;;;;;;12632134;28;20063;-76
2022/04/22 21:36:05;;;;;;;7.30;6.60;;;;;;;;;;12648679;28;20044;-76
2022/04/22 21:42:06;;;;;;;7.30;6.40;;;;;;;;;;12650253;28;20036;-76
2022/04/22 21:48:09;;;;;;;6.03;5.53;;;;;;;;;;12648146;28;20040;-76
2022/04/22 21:54:12;;;;;;;5.38;4.88;;;;;;;;;;12652382;28;20044;-76
2022/04/22 22:00:20;;;;;;;5.63;5.13;;;;;;;;;;12660048;28;20039;-76
2022/04/22 22:06:23;;;;;;;4.10;3.80;;;;;;;;;;12648501;28;20032;-76
2022/04/22 22:12:25;;;;;;;4.53;4.13;;;;;;;;;;12648100;28;20043;-76
2022/04/22 22:18:27;;;;;;;4.32;3.92;;;;;;;;;;12648083;28;20040;-76
2022/04/22 22:24:29;;;;;;;3.92;3.63;;;;;;;;;;12629397;28;20028;-76
2022/04/22 22:30:30;;;;;;;4.57;4.20;;;;;;;;;;12655944;28;20048;-77
2022/04/22 22:36:32;;;;;;;3.72;3.10;;;;;;;;;;12651746;28;20040;-76
2022/04/22 22:42:34;;;;;;;3.70;3.40;;;;;;;;;;12629167;28;20039;-76
2022/04/22 22:48:35;;;;;;;3.85;3.45;;;;;;;;;;12659336;28;20392;-76
2022/04/22 22:54:37;;;;;;;3.40;3.10;;;;;;;;;;12628088;28;20040;-76
2022/04/22 23:00:41;;;;;;;3.83;3.42;;;;;;;;;;12646451;28;20043;-76
2022/04/22 23:06:43;;;;;;;3.22;3.03;;;;;;;;;;12645432;28;20039;-76
2022/04/22 23:12:45;;;;;;;2.97;2.75;;;;;;;;;;12644468;28;20027;-76
2022/04/22 23:18:48;;;;;;;3.50;3.20;;;;;;;;;;12627193;28;20472;-76
2022/04/22 23:24:49;;;;;;;3.17;2.88;;;;;;;;;;12643551;28;20036;-76
2022/04/22 23:30:51;;;;;;;3.25;2.95;;;;;;;;;;12644531;28;20044;-76
2022/04/22 23:36:52;;;;;;;3.42;3.22;;;;;;;;;;12643997;28;20043;-76
2022/04/22 23:42:55;;;;;;;3.00;2.80;;;;;;;;;;12643120;28;20256;-76
2022/04/22 23:48:56;;;;;;;3.72;3.42;;;;;;;;;;12626446;28;20036;-76
2022/04/22 23:54:59;;;;;;;3.33;3.03;;;;;;;;;;12649297;28;20022;-77
